Iliysk North Airport

Jump to: basic info | weather | comments

Related pages: nearby airports | nearby navaids

Basic information (top)

Location: lon 43.998299, lat 77.139099, elev 2,343 ft / 714 m msl
Status: small_airport

Weather (top)

Current conditions for Almaty Airport 39nm (72km) S (rec'd 2014/10/31 12:30Z):

UAAA 311230Z 06002MPS 5000 FU NSC 04/M03 Q1027 R88/65D NOSIG

Airport forecast for Almaty Airport 39nm (72km) S (rec'd 2014/10/31 12:18Z):

TAF TAF UAAA 311100Z 3112/0112 05006MPS 3000 BR FU BKN100 TX11/0108Z TNM02/0101Z 
      TEMPO 3114/3116 0800 
      TEMPO 3116/0105 16004MPS 0300 FZFG VV002 
      BECMG 0105/0106 9999 NSW

Latest comments (top)

No comments yet for Iliysk North Airport

More... (top)

See also NOTAMs and nearby airports and navaids, or visit the Iliysk North Airport page at the main OurAirports website..